Latest Weather Observations for Toowoomba

IDQ60901

Issued at 3:15 pm EST Thursday 27 November 2014 (issued every 10 minutes, with the page automatically refreshed every 10 minutes)

About weather observations | Map of Brisbane area stations | Latest observations for Brisbane area | Other Formats
Station Details ID: 041529 Name: TOOWOOMBA AIRPORT Lat: -27.54 Lon: 151.91 Height: 640.9 m
Data from the previous 72 hours. | See also: Recent months at Toowoomba
Date/Time
EST
Tmp

°C
App
Tmp
°C
Dew
Point
°C
Rel
Hum
%
Delta-T

°C
Wind Press
QNH
hPa
Press
MSL
hPa
Rain
since
9 am
mm
Dir
 
Spd
km/h
Gust
km/h
Spd
kts
Gust
kts
27/03:00pm 29.5 28.4 12.0 34 10.5 SSE 9 19 5 10 1016.2 1013.5 0.0
27/02:30pm 29.5 27.9 12.9 36 10.1 SSE 13 24 7 13 1016.6 - 0.0
27/02:00pm 28.5 27.0 10.7 33 10.4 SSW 9 17 5 9 1017.3 - 0.0
27/01:30pm 29.2 28.3 13.8 39 9.5 S 11 22 6 12 1017.6 - 0.0
27/01:00pm 28.0 24.5 13.5 41 8.8 SW 24 30 13 16 1017.9 - 0.0
27/12:30pm 27.1 25.9 14.1 44 8.0 SSE 13 20 7 11 1018.3 - 0.0
27/12:00pm 26.6 25.0 15.0 49 7.2 SW 17 28 9 15 1018.7 1016.0 0.0
27/11:30am 26.9 26.2 14.3 46 7.7 S 11 17 6 9 1019.0 - 0.0
27/11:00am 25.6 24.5 14.4 50 6.9 SSW 13 20 7 11 1019.3 - 0.0
27/10:30am 25.1 25.4 15.1 53 6.2 WSW 7 15 4 8 1019.7 - 0.0
27/10:00am 24.9 25.0 14.4 52 6.4 NNW 7 11 4 6 1019.9 - 0.0
27/09:30am 24.2 24.2 15.1 56 5.6 WNW 9 17 5 9 1020.2 - 0.0
27/09:00am 23.3 23.1 15.6 62 4.8 N 11 15 6 8 1020.4 1017.7 2.0
27/08:30am 22.0 21.3 15.4 66 4.0 N 13 19 7 10 1020.2 - 2.0
27/08:00am 20.6 20.2 16.2 76 2.7 N 13 17 7 9 1020.4 - 2.0
27/07:30am 20.2 20.1 16.0 77 2.6 N 11 17 6 9 1020.4 - 2.0
27/07:00am 19.1 18.7 16.3 84 1.7 N 13 19 7 10 1020.1 - 2.0
27/06:30am 18.6 19.2 16.8 89 1.1 NE 9 13 5 7 1019.9 - 2.0
27/06:00am 17.9 17.7 16.8 93 0.7 ENE 13 15 7 8 1019.6 1016.9 2.0
27/05:52am 17.6 17.4 16.8 95 0.5 ENE 13 15 7 8 1019.5 - 2.0
27/05:40am 17.4 17.2 16.8 96 0.4 E 13 17 7 9 1019.4 - 2.0
27/05:30am 17.3 16.8 16.8 97 0.3 ENE 15 19 8 10 1019.4 - 2.0
27/05:26am 17.3 16.8 16.8 97 0.3 ENE 15 19 8 10 1019.4 - 2.0
27/05:05am 17.2 17.0 16.7 97 0.3 ENE 13 17 7 9 1019.2 - 2.0
27/05:00am 17.1 16.8 16.5 96 0.4 ENE 13 17 7 9 1019.2 - 2.0
27/04:30am 17.0 16.7 16.4 96 0.4 ENE 13 15 7 8 1019.0 - 2.0
27/04:00am 17.1 16.7 16.3 95 0.5 ENE 13 15 7 8 1018.5 - 2.0
27/03:30am 17.1 16.3 16.1 94 0.6 E 15 17 8 9 1018.3 - 2.0
27/03:00am 17.2 16.4 16.2 94 0.6 E 15 17 8 9 1018.3 1015.7 2.0
27/02:30am 17.4 16.7 16.3 93 0.7 E 15 19 8 10 1018.5 - 2.0
27/02:00am 17.7 16.9 16.2 91 0.9 E 15 19 8 10 1018.7 - 2.0
27/01:30am 17.8 17.4 16.1 90 1.0 E 13 17 7 9 1018.5 - 2.0
27/01:00am 18.1 17.3 16.1 88 1.2 E 15 20 8 11 1018.5 - 2.0
27/12:30am 18.5 18.0 15.9 85 1.6 E 13 15 7 8 1019.0 - 2.0
27/12:00am 19.3 18.7 15.6 79 2.2 NE 13 19 7 10 1019.0 1016.3 2.0
 
Date/Time
EST
Tmp

°C
App
Tmp
°C
Dew
Point
°C
Rel
Hum
%
Delta-T

°C
Wind Press
QNH
hPa
Press
MSL
hPa
Rain
since
9 am
mm
Dir
 
Spd
km/h
Gust
km/h
Spd
kts
Gust
kts
26/11:30pm 18.5 16.7 16.1 86 1.5 E 20 28 11 15 1018.9 - 2.0
26/11:00pm 18.4 16.3 16.2 87 1.3 E 22 28 12 15 1019.5 - 2.0
26/10:30pm 17.9 16.3 16.6 92 0.8 E 20 28 11 15 1019.7 - 2.0
26/10:00pm 17.8 14.3 16.5 92 0.8 E 30 39 16 21 1019.9 - 2.0
26/09:30pm 18.1 15.2 16.1 88 1.2 E 26 32 14 17 1020.1 - 2.0
26/09:00pm 18.1 15.0 15.7 86 1.5 E 26 32 14 17 1020.0 1017.4 2.0
26/08:30pm 17.8 15.5 15.8 88 1.2 E 22 28 12 15 1020.0 - 1.8
26/08:00pm 17.8 16.0 16.0 89 1.1 E 20 24 11 13 1019.8 - 1.8
26/07:30pm 18.9 17.1 15.6 81 2.0 E 19 20 10 11 1019.6 - 1.8
26/07:00pm 18.2 17.7 16.0 87 1.3 E 13 15 7 8 1019.7 - 1.8
26/06:30pm 19.2 18.7 15.9 81 2.0 E 13 17 7 9 1019.8 - 1.8
26/06:00pm 19.6 20.0 16.3 81 2.0 E 9 13 5 7 1019.7 1017.1 1.8
26/05:30pm 19.5 19.6 15.6 78 2.4 SSW 9 13 5 7 1019.7 - 1.8
26/05:09pm 18.8 19.0 15.7 82 1.9 SSE 9 11 5 6 1019.7 - 1.8
26/05:00pm 18.5 18.6 15.4 82 1.9 SSE 9 13 5 7 1019.6 - 1.6
26/04:50pm 18.1 17.6 15.0 82 1.9 S 11 19 6 10 1019.4 - 0.8
26/04:30pm 18.0 15.1 15.1 83 1.7 SSW 24 32 13 17 1018.9 - 0.0
26/04:00pm 18.8 15.9 16.0 84 1.7 SW 26 43 14 23 1019.1 - 0.0
26/03:47pm 20.3 16.7 15.3 73 3.0 WSW 28 52 15 28 1018.4 - 0.0
26/03:45pm 20.3 17.0 15.1 72 3.2 WSW 26 41 14 22 1018.5 - 0.0
26/03:30pm 25.4 23.8 16.0 56 5.9 E 19 24 10 13 1018.1 - 0.0
26/03:00pm 26.2 23.2 16.7 56 6.0 ESE 28 33 15 18 1017.7 1015.0 0.0
26/02:30pm 26.2 23.8 16.4 54 6.2 ESE 24 33 13 18 1017.8 - 0.0
26/02:00pm 27.3 25.7 16.0 50 7.1 E 19 28 10 15 1017.9 - 0.0
26/01:30pm 27.0 24.7 15.7 50 7.1 E 22 33 12 18 1018.0 - 0.0
26/01:00pm 27.3 25.7 16.0 50 7.1 E 19 28 10 15 1018.2 - 0.0
26/12:30pm 28.5 27.7 17.1 50 7.3 NE 17 24 9 13 1018.5 - 0.0
26/12:00pm 27.6 26.4 16.2 49 7.2 ENE 17 28 9 15 1019.2 1016.5 0.0
26/11:30am 27.0 26.4 16.6 53 6.6 E 15 22 8 12 1019.6 - 0.0
26/11:00am 26.1 24.7 15.5 52 6.6 ENE 17 24 9 13 1019.7 - 0.0
26/10:30am 26.1 24.3 15.5 52 6.6 NE 19 26 10 14 1019.9 - 0.0
26/10:00am 25.9 24.6 15.9 54 6.3 ENE 17 22 9 12 1020.0 - 0.0
26/09:30am 25.0 23.0 15.6 56 5.8 ENE 20 28 11 15 1020.2 - 0.0
26/09:00am 24.2 22.7 16.7 63 4.7 NE 20 24 11 13 1020.1 1017.5 0.0
26/08:30am 22.4 22.4 17.1 72 3.3 NE 13 20 7 11 1020.2 - 0.0
26/08:00am 21.6 21.3 17.4 77 2.7 ENE 15 19 8 10 1020.2 - 0.0
26/07:46am 21.1 20.9 17.7 81 2.2 NE 15 22 8 12 1020.2 - 0.0
26/07:30am 21.1 20.9 17.7 81 2.2 ENE 15 19 8 10 1020.2 - 0.0
26/07:00am 20.5 19.5 17.9 85 1.7 ENE 20 28 11 15 1020.0 - 0.0
26/06:30am 20.4 18.5 17.6 84 1.8 E 24 35 13 19 1019.6 - 0.0
26/06:00am 19.6 18.2 17.9 90 1.1 E 22 28 12 15 1019.4 1016.7 0.0
26/05:30am 19.3 18.2 17.8 91 0.9 E 20 28 11 15 1019.2 - 0.0
26/05:00am 19.3 18.1 17.6 90 1.1 E 20 26 11 14 1018.9 - 0.0
26/04:30am 19.2 17.9 17.3 89 1.2 E 20 28 11 15 1018.4 - 0.0
26/04:00am 19.3 17.6 17.1 87 1.4 E 22 28 12 15 1018.1 - 0.0
26/03:30am 19.5 17.7 16.9 85 1.6 E 22 35 12 19 1017.7 - 0.0
26/03:00am 19.6 17.4 17.0 85 1.6 E 24 32 13 17 1017.5 1014.8 0.0
26/02:30am 19.7 16.1 17.3 86 1.5 E 32 41 17 22 1017.5 - 0.0
26/02:15am 19.7 16.1 17.3 86 1.5 E 32 41 17 22 1017.5 - 0.0
26/02:00am 19.7 16.0 16.9 84 1.7 E 32 41 17 22 1017.4 - 0.0
26/01:30am 20.1 16.1 16.7 81 2.1 E 33 43 18 23 1017.7 - 0.0
26/01:00am 20.4 16.3 16.4 78 2.5 E 33 46 18 25 1018.2 - 0.0
26/12:30am 20.6 15.6 16.2 76 2.7 E 37 48 20 26 1018.7 - 0.0
26/12:00am 20.8 15.4 16.0 74 3.0 E 39 50 21 27 1019.1 1016.4 0.0
 
Date/Time
EST
Tmp

°C
App
Tmp
°C
Dew
Point
°C
Rel
Hum
%
Delta-T

°C
Wind Press
QNH
hPa
Press
MSL
hPa
Rain
since
9 am
mm
Dir
 
Spd
km/h
Gust
km/h
Spd
kts
Gust
kts
25/11:30pm 21.0 15.7 16.2 74 3.0 E 39 54 21 29 1019.3 - 0.0
25/11:00pm 21.3 15.7 16.5 74 3.0 E 41 56 22 30 1019.5 - 0.0
25/10:30pm 21.7 15.8 16.6 73 3.2 E 43 56 23 30 1019.9 - 0.0
25/10:00pm 22.1 16.5 16.4 70 3.6 E 41 59 22 32 1019.8 - 0.0
25/09:44pm 22.4 17.9 16.4 69 3.7 E 35 54 19 29 1019.9 - 0.0
25/09:30pm 22.6 18.7 16.4 68 3.9 E 32 44 17 24 1019.9 - 0.0
25/09:00pm 23.2 19.3 16.5 66 4.2 E 32 41 17 22 1019.8 1017.2 0.0
25/08:30pm 23.8 19.8 16.3 63 4.7 ESE 32 41 17 22 1019.5 - 0.0
25/08:00pm 22.6 20.2 17.3 72 3.4 SSW 26 33 14 18 1018.8 - 0.0
25/07:30pm 24.8 23.2 16.5 60 5.2 SSE 20 26 11 14 1017.6 - 0.0
25/07:00pm 25.8 23.2 15.8 54 6.3 S 24 37 13 20 1016.8 - 0.0
25/06:43pm 27.4 23.6 14.8 46 7.8 SSW 28 39 15 21 1016.5 - 0.0
25/06:30pm 29.9 27.8 12.3 33 10.6 E 15 20 8 11 1015.9 - 0.0
25/06:00pm 30.4 27.7 12.8 34 10.7 E 19 22 10 12 1015.4 1012.6 0.0
25/05:30pm 30.9 28.9 12.8 33 11.0 ESE 15 20 8 11 1014.9 - 0.0
25/05:00pm 32.1 30.4 7.7 22 13.8 ESE 6 11 3 6 1014.6 - 0.0
25/04:30pm 32.8 31.2 8.9 23 13.8 SSW 7 9 4 5 1014.5 - 0.0
25/04:00pm 32.4 29.8 9.2 24 13.5 WSW 13 19 7 10 1014.7 - 0.0
25/03:30pm 32.8 30.3 9.6 24 13.6 NNW 13 20 7 11 1014.8 - 0.0
25/03:00pm 31.9 31.1 11.7 29 12.1 NW 7 15 4 8 1015.0 1012.3 0.0
25/02:30pm 32.4 31.1 12.6 30 12.1 NW 11 20 6 11 1015.2 - 0.0
25/02:00pm 31.5 30.1 12.3 31 11.6 W 11 26 6 14 1015.6 - 0.0
25/01:30pm 31.7 31.7 13.5 33 11.2 NNW 6 13 3 7 1016.0 - 0.0
25/01:00pm 30.6 30.7 13.8 35 10.4 NNE 6 11 3 6 1016.2 - 0.0
25/12:30pm 30.5 29.2 13.7 35 10.4 NW 13 20 7 11 1016.6 - 0.0
25/12:00pm 29.8 29.5 14.4 39 9.6 WSW 9 15 5 8 1017.1 1014.4 0.0
25/11:30am 28.9 29.0 15.4 44 8.5 W 9 17 5 9 1017.6 - 0.0
25/11:00am 27.9 27.6 14.5 44 8.3 NNE 9 13 5 7 1017.9 - 0.0
25/10:30am 28.0 28.4 16.3 49 7.4 NNW 9 19 5 10 1018.4 - 0.0
25/10:00am 26.6 27.1 16.5 54 6.4 NNW 9 15 5 8 1018.8 - 0.0
25/09:30am 24.7 24.2 14.8 54 6.1 WSW 11 17 6 9 1019.1 - 0.0
25/09:00am 24.7 24.2 15.9 58 5.5 WSW 13 22 7 12 1019.4 1016.7 0.0
25/08:30am 23.8 24.3 16.6 64 4.5 WNW 9 15 5 8 1019.3 - 0.0
25/08:00am 22.2 22.2 16.2 69 3.7 W 11 15 6 8 1019.3 - 0.0
25/07:30am 21.1 21.4 16.1 73 3.1 NNW 9 15 5 8 1019.3 - 0.0
25/07:00am 20.0 20.2 15.8 77 2.6 NNW 9 15 5 8 1019.0 - 0.0
25/06:30am 19.4 19.2 15.7 79 2.3 N 11 17 6 9 1018.5 - 0.0
25/06:00am 18.5 17.9 15.6 83 1.8 NNW 13 15 7 8 1018.5 1015.9 0.0
25/05:30am 18.0 17.4 15.6 86 1.5 N 13 19 7 10 1018.2 - 0.0
25/05:00am 17.8 17.7 16.0 89 1.1 NW 11 17 6 9 1018.1 - 0.0
25/04:30am 17.8 18.5 16.0 89 1.1 WNW 7 11 4 6 1017.8 - 0.0
25/04:00am 17.9 17.6 16.4 91 0.9 WSW 13 24 7 13 1017.5 - 0.0
25/03:30am 18.0 19.6 16.9 93 0.7 ENE 4 15 2 8 1016.6 - 0.0
25/03:00am 18.1 16.8 16.9 93 0.7 ENE 19 24 10 13 1016.0 1013.3 0.0
25/02:30am 18.3 18.6 17.1 93 0.7 ENE 11 15 6 8 1017.3 - 0.0
25/02:00am 18.6 18.9 17.1 91 0.9 ENE 11 15 6 8 1017.1 - 0.0
25/01:30am 18.8 18.9 17.5 92 0.8 ENE 13 17 7 9 1017.2 - 0.0
25/01:00am 19.1 18.3 17.2 89 1.2 ENE 17 20 9 11 1017.0 - 0.0
25/12:30am 19.1 18.6 17.8 92 0.8 E 17 19 9 10 1017.2 - 0.0
25/12:00am 19.4 18.9 17.7 90 1.1 ENE 17 20 9 11 1017.5 1014.8 0.0
 
Date/Time
EST
Tmp

°C
App
Tmp
°C
Dew
Point
°C
Rel
Hum
%
Delta-T

°C
Wind Press
QNH
hPa
Press
MSL
hPa
Rain
since
9 am
mm
Dir
 
Spd
km/h
Gust
km/h
Spd
kts
Gust
kts
24/11:30pm 19.8 19.7 17.8 88 1.3 ENE 15 20 8 11 1017.7 - 0.0
24/11:00pm 20.4 20.3 17.8 85 1.6 ENE 15 19 8 10 1017.9 - 0.0
24/10:30pm 20.8 19.7 17.8 83 1.9 E 20 26 11 14 1018.1 - 0.0
24/10:00pm 21.2 19.7 17.8 81 2.2 E 22 28 12 15 1018.1 - 0.0
24/09:30pm 21.8 20.3 17.8 78 2.5 E 22 30 12 16 1017.9 - 0.0
24/09:00pm 22.6 20.7 17.7 74 3.1 E 24 32 13 17 1017.5 1014.8 0.0
24/08:30pm 23.4 21.6 17.8 71 3.6 E 24 32 13 17 1017.3 - 0.0
24/08:00pm 24.1 21.8 17.6 67 4.2 E 26 32 14 17 1016.8 - 0.0
24/07:30pm 24.9 22.7 17.9 65 4.5 E 26 33 14 18 1016.4 - 0.0
24/07:00pm 25.8 23.5 17.7 61 5.2 E 26 33 14 18 1016.0 - 0.0
24/06:30pm 28.1 24.7 12.4 37 9.4 E 22 28 12 15 1015.5 - 0.0
24/06:00pm 29.7 25.0 7.6 25 12.3 E 22 30 12 16 1015.2 1012.5 0.0
24/05:30pm 29.7 26.5 9.8 29 11.5 ESE 17 24 9 13 1015.0 - 0.0
24/05:00pm 30.4 26.5 9.3 27 12.1 ESE 20 24 11 13 1014.8 - 0.0
24/04:30pm 30.7 26.6 10.1 28 12.0 E 22 28 12 15 1014.8 - 0.0
24/04:00pm 31.7 28.4 11.0 28 12.3 ENE 19 26 10 14 1015.0 - 0.0
24/03:30pm 31.4 28.3 12.2 30 11.6 E 20 28 11 15 1015.4 - 0.0

Latest Capital City Observations: Canberra | Sydney | Melbourne | Brisbane | Adelaide | Perth | Hobart | Darwin

Other Formats:

Comma delimited format used in spreadsheet applications
http://www.bom.gov.au/fwo/IDQ60901/IDQ60901.95551.axf

JavaScript Object Notation format (JSON) in row-major order
http://www.bom.gov.au/fwo/IDQ60901/IDQ60901.95551.json